CST,Max TemperatureF,Mean TemperatureF,Min TemperatureF,Max Dew PointF,MeanDew PointF,Min DewpointF,Max Humidity, Mean Humidity, Min Humidity, Max Sea Level PressureIn, Mean Sea Level PressureIn, Min Sea Level PressureIn, Max VisibilityMiles, Mean VisibilityMiles, Min VisibilityMiles, Max Wind SpeedMPH, Mean Wind SpeedMPH, Max Gust SpeedMPH,PrecipitationIn, CloudCover, Events, WindDirDegrees
2012-12-1,32,24,17,32,26,16,100,99,93,29.82,29.73,29.61,10,3,0,14,7,20,0.00,6,Fog,285
2012-12-2,37,32,28,34,32,28,100,97,87,29.81,29.57,29.28,10,6,0,15,9,20,0.01,3,Fog-Rain,136
2012-12-3,37,22,8,37,21,3,100,84,68,29.96,29.61,29.27,10,10,9,33,15,44,0.00,2,Rain,290
2012-12-4,15,10,6,10,5,1,92,80,62,30.27,30.19,29.97,10,10,10,16,11,21,0.00,1,,338
2012-12-5,37,26,15,30,20,10,87,79,69,30.18,29.78,29.57,10,10,10,31,15,39,0.00,2,,171
2012-12-6,32,22,10,27,17,10,100,87,80,29.97,29.88,29.65,10,10,10,31,19,43,0.00,4,,296
2012-12-7,10,6,1,9,3,0,92,86,79,30.07,30.02,29.95,10,10,10,17,6,21,0.00,3,,65
2012-12-8,10,6,1,9,4,-2,92,86,72,30.20,29.96,29.86,10,5,1,22,16,26,0.78,7,Rain-Snow,59
2012-12-9,6,0,-5,1,-3,-9,92,85,72,30.39,30.27,30.03,10,10,10,10,8,,0.00,4,,284
2012-12-10,17,8,0,10,2,-2,92,81,72,30.02,29.73,29.63,10,10,5,16,11,22,0.00,1,Snow,235
2012-12-11,10,2,-5,7,-2,-9,92,82,72,29.83,29.75,29.61,10,10,1,25,10,31,0.04,3,Snow,264
2012-12-12,14,7,0,10,3,-2,92,87,78,29.99,29.75,29.59,10,9,1,24,15,32,0.15,8,Snow,78
2012-12-13,24,12,0,25,7,-2,100,91,85,30.06,29.99,29.91,10,7,1,12,5,,0.06,8,Snow-Thunderstorm,144
2012-12-14,24,20,15,25,18,14,100,97,93,29.91,29.78,29.70,7,3,0,15,8,17,0.00,8,Fog,181
2012-12-15,23,14,5,21,14,1,100,95,85,29.78,29.72,29.69,10,5,0,22,8,26,0.00,6,Fog,299
2012-12-16,19,17,15,19,16,14,100,95,93,29.82,29.79,29.77,8,2,0,9,5,,0.00,8,Fog-Snow,125
2012-12-17,23,19,15,21,17,14,100,97,93,29.76,29.62,29.54,10,7,1,12,7,16,0.02,8,Rain-Snow,154
2012-12-18,24,20,17,25,21,16,100,98,93,29.61,29.56,29.53,10,5,1,13,7,,0.10,8,Snow,143
2012-12-19,23,12,-2,23,13,-8,100,94,78,30.08,29.85,29.61,10,7,1,18,10,25,0.66,7,Rain-Snow,289
2012-12-20,8,-2,-11,7,-3,-17,92,85,77,30.16,30.12,30.08,10,7,0,12,6,,0.02,4,Fog-Snow,37
2012-12-21,15,2,-11,14,0,-17,100,87,77,30.16,30.05,29.96,10,10,10,15,9,18,0.00,0,Rain-Snow,138
2012-12-22,8,2,-5,7,1,-9,92,87,78,30.21,30.13,29.97,10,10,9,17,8,,0.00,3,Snow,338
2012-12-23,0,-1,-2,-2,-5,-8,92,84,78,30.20,30.17,30.15,10,7,1,17,11,17,0.77,5,Snow,62
2012-12-24,0,-9,-18,-4,-12,-22,85,79,71,30.36,30.26,30.17,10,10,9,12,5,,0.00,1,Snow,294
2012-12-25,0,-12,-22,-6,-19,-27,85,77,69,30.46,30.39,30.32,10,10,3,15,9,,0.00,2,Snow,283
2012-12-26,8,-5,-18,7,-7,-22,92,84,76,30.31,30.20,30.13,10,9,4,12,4,,0.01,5,Snow,97
2012-12-27,10,8,6,7,5,3,92,87,85,30.14,30.08,30.05,10,7,1,14,10,16,0.08,8,Snow,138
2012-12-28,10,0,-11,5,1,-17,92,86,77,30.05,29.99,29.95,10,9,2,14,7,,0.01,5,Snow,242
2012-12-29,6,-4,-14,1,-6,-20,92,83,77,30.03,29.97,29.92,10,10,10,9,6,,0.00,4,Snow,219
2012-12-30,21,8,-7,18,9,-9,93,85,78,30.12,29.95,29.87,10,10,8,23,10,29,0.03,5,Snow,293
2012-12-31,-4,-12,-20,-8,-17,-26,92,81,70,30.20,30.16,30.12,10,10,8,10,5,,0.00,1,Snow,221